createdAt,value
2022-09-29T00:01:09.761Z,11.07
2022-09-29T00:03:36.733Z,2.95
2022-09-29T00:06:03.072Z,3.90
2022-09-29T00:08:30.221Z,2.30
2022-09-29T00:10:56.639Z,2.33
2022-09-29T00:13:23.309Z,2.33
2022-09-29T00:15:59.456Z,4.95
2022-09-29T00:18:26.329Z,5.05
2022-09-29T00:20:59.904Z,3.78
2022-09-29T00:23:26.968Z,3.90
2022-09-29T00:26:12.170Z,5.68
2022-09-29T00:28:39.303Z,2.08
2022-09-29T00:31:06.089Z,2.90
2022-09-29T00:33:33.386Z,5.38
2022-09-29T00:36:01.329Z,1.67
2022-09-29T00:38:28.597Z,5.43
2022-09-29T00:40:54.957Z,2.42
2022-09-29T00:43:23.245Z,2.45
2022-09-29T00:45:51.027Z,1.98
2022-09-29T00:48:19.472Z,3.20
2022-09-29T00:50:48.712Z,2.38
2022-09-29T00:53:21.220Z,1.83
2022-09-29T00:55:53.750Z,2.78
2022-09-29T00:58:28.001Z,2.70
2022-09-29T01:00:55.254Z,2.25
2022-09-29T01:03:22.715Z,2.58
2022-09-29T01:05:51.985Z,1.95
2022-09-29T01:08:24.658Z,5.43
2022-09-29T01:10:52.127Z,5.82
2022-09-29T01:13:19.592Z,2.53
2022-09-29T01:15:45.998Z,2.05
2022-09-29T01:18:12.400Z,1.88
2022-09-29T01:20:48.322Z,3.38
2022-09-29T01:23:17.460Z,7.05
2022-09-29T01:26:02.682Z,3.58
2022-09-29T01:28:29.018Z,4.03
2022-09-29T01:31:14.272Z,5.80
2022-09-29T01:33:40.610Z,2.60
2022-09-29T01:36:28.068Z,5.03
2022-09-29T01:39:00.228Z,2.00
2022-09-29T01:41:42.595Z,7.18
2022-09-29T01:44:21.303Z,4.07
2022-09-29T01:46:53.546Z,1.88
2022-09-29T01:49:21.563Z,2.67
2022-09-29T01:52:00.551Z,4.03
2022-09-29T01:54:34.637Z,2.28
2022-09-29T01:57:13.703Z,2.63
2022-09-29T01:59:49.456Z,3.72
2022-09-29T02:09:38.913Z,2.55
2022-09-29T02:12:07.161Z,1.95
2022-09-29T02:14:39.696Z,3.05
2022-09-29T02:17:19.420Z,3.78
2022-09-29T02:19:46.597Z,3.67
2022-09-29T02:22:13.258Z,3.05
2022-09-29T02:24:39.580Z,1.63
2022-09-29T02:27:05.903Z,1.92
2022-09-29T02:29:33.505Z,1.30
2022-09-29T02:32:02.719Z,1.98
2022-09-29T02:34:30.997Z,1.73
2022-09-29T02:37:03.487Z,2.05
2022-09-29T02:39:48.464Z,3.88
2022-09-29T02:42:25.615Z,3.25
2022-09-29T02:45:24.160Z,2.22
2022-09-29T02:47:55.526Z,3.33
2022-09-29T02:50:30.804Z,2.70
2022-09-29T02:52:57.079Z,4.57
2022-09-29T02:55:33.042Z,1.58
2022-09-29T02:58:18.046Z,2.47
2022-09-29T03:00:44.795Z,3.83
2022-09-29T03:03:11.155Z,2.28
2022-09-29T03:05:37.534Z,2.65
2022-09-29T03:08:03.821Z,2.35
2022-09-29T03:10:30.561Z,3.30
2022-09-29T03:12:57.201Z,3.17
2022-09-29T03:15:23.486Z,2.20
2022-09-29T03:17:50.531Z,1.98
2022-09-29T03:20:16.843Z,2.13
2022-09-29T03:22:43.205Z,2.22
2022-09-29T03:25:09.597Z,2.45
2022-09-29T03:27:38.251Z,2.72
2022-09-29T03:30:04.865Z,2.72
2022-09-29T03:32:31.173Z,2.67
2022-09-29T03:34:57.756Z,4.07
2022-09-29T03:37:24.082Z,2.05
2022-09-29T03:39:50.367Z,2.78
2022-09-29T03:42:16.682Z,6.03
2022-09-29T03:44:42.994Z,2.33
2022-09-29T03:47:09.656Z,1.98
2022-09-29T03:49:35.989Z,2.63
2022-09-29T03:52:02.378Z,1.40
2022-09-29T03:54:28.713Z,1.60
2022-09-29T03:56:55.024Z,2.10
2022-09-29T03:59:21.509Z,2.70
2022-09-29T04:01:47.886Z,3.15
2022-09-29T04:04:14.233Z,2.85
2022-09-29T04:06:40.504Z,2.35
2022-09-29T04:09:06.883Z,2.75
2022-09-29T04:11:33.169Z,1.98
2022-09-29T04:13:59.468Z,3.80
2022-09-29T04:16:25.824Z,2.50
2022-09-29T04:18:52.181Z,2.40
2022-09-29T04:21:18.503Z,2.38
2022-09-29T04:23:45.037Z,2.03
2022-09-29T04:26:11.382Z,2.40
2022-09-29T04:28:38.602Z,2.15
2022-09-29T04:31:05.345Z,1.60
2022-09-29T04:33:31.715Z,1.42
2022-09-29T04:35:58.630Z,4.03
2022-09-29T04:38:24.953Z,2.42
2022-09-29T04:40:51.359Z,1.52
2022-09-29T04:43:17.893Z,1.75
2022-09-29T04:45:44.271Z,1.80
2022-09-29T04:48:10.607Z,2.13
2022-09-29T04:50:37.479Z,2.45
2022-09-29T04:53:03.827Z,1.58
2022-09-29T04:55:30.111Z,2.08
2022-09-29T04:57:56.571Z,2.30
2022-09-29T05:00:22.944Z,3.58
2022-09-29T05:02:50.083Z,2.13
2022-09-29T05:05:16.882Z,1.98
2022-09-29T05:07:44.479Z,2.72
2022-09-29T05:10:10.778Z,3.42
2022-09-29T05:12:37.321Z,3.30
2022-09-29T05:15:04.859Z,2.22
2022-09-29T05:17:31.170Z,2.63
2022-09-29T05:19:57.467Z,2.90
2022-09-29T05:22:24.565Z,2.90
2022-09-29T05:24:51.536Z,2.30
2022-09-29T05:27:17.843Z,4.53
2022-09-29T05:29:44.137Z,6.90
2022-09-29T05:32:10.507Z,4.57
2022-09-29T05:34:36.785Z,2.65
2022-09-29T05:37:03.419Z,5.18
2022-09-29T05:39:31.926Z,5.57
2022-09-29T05:41:59.716Z,2.95
2022-09-29T05:44:26.160Z,5.05
2022-09-29T05:46:52.535Z,3.15
2022-09-29T05:49:19.362Z,12.02
2022-09-29T05:51:45.949Z,10.65
2022-09-29T05:54:12.284Z,10.32
2022-09-29T05:56:43.033Z,10.15
2022-09-29T05:59:11.701Z,8.60
2022-09-29T06:01:38.066Z,7.65
2022-09-29T06:04:04.367Z,5.40
2022-09-29T06:06:30.705Z,5.10
2022-09-29T06:08:58.120Z,6.57
2022-09-29T06:11:25.419Z,9.68
2022-09-29T06:13:53.059Z,8.15
2022-09-29T06:16:20.741Z,6.63
2022-09-29T06:18:48.084Z,4.53
2022-09-29T06:21:15.639Z,5.30
2022-09-29T06:23:42.037Z,4.97
2022-09-29T06:26:09.687Z,7.35
2022-09-29T06:28:35.975Z,5.78
2022-09-29T06:31:08.092Z,6.60
2022-09-29T06:33:35.193Z,4.03
2022-09-29T06:36:22.357Z,4.93
2022-09-29T06:38:48.669Z,8.48
2022-09-29T06:41:15.057Z,5.65
2022-09-29T06:43:41.358Z,3.95
2022-09-29T06:46:07.701Z,6.53
2022-09-29T06:48:34.073Z,5.60
2022-09-29T06:51:09.528Z,6.30
2022-09-29T06:53:38.614Z,6.55
2022-09-29T06:56:05.430Z,6.38
2022-09-29T06:58:31.772Z,8.02
2022-09-29T07:01:00.498Z,12.00
2022-09-29T07:03:27.148Z,9.00
2022-09-29T07:06:15.290Z,4.28
2022-09-29T07:11:07.387Z,5.40
2022-09-29T07:13:34.000Z,7.00
2022-09-29T07:16:06.649Z,10.23
2022-09-29T07:18:37.760Z,10.02
2022-09-29T07:21:05.044Z,8.00
2022-09-29T07:23:31.645Z,6.68
2022-09-29T07:25:58.074Z,5.97
2022-09-29T07:28:24.670Z,8.02
2022-09-29T07:31:12.469Z,8.05
2022-09-29T07:33:41.051Z,12.00
2022-09-29T07:36:07.844Z,6.93
2022-09-29T07:38:34.171Z,7.87
2022-09-29T07:41:04.307Z,7.28
2022-09-29T07:43:31.049Z,7.03
2022-09-29T07:45:57.715Z,9.65
2022-09-29T07:48:26.865Z,11.45
2022-09-29T07:51:01.257Z,10.38
2022-09-29T07:53:27.607Z,8.70
2022-09-29T07:55:53.920Z,7.70
2022-09-29T07:58:20.240Z,9.75
2022-09-29T08:00:46.582Z,11.02
2022-09-29T08:03:13.311Z,8.02
2022-09-29T08:05:41.900Z,9.18
2022-09-29T08:08:08.185Z,11.35
2022-09-29T08:10:41.689Z,11.60
2022-09-29T08:13:10.612Z,10.65
2022-09-29T08:15:36.933Z,8.60
2022-09-29T08:18:03.327Z,10.27
2022-09-29T08:20:29.728Z,6.82
2022-09-29T08:22:57.016Z,8.18
2022-09-29T08:25:26.031Z,7.72
2022-09-29T08:27:55.820Z,10.73
2022-09-29T08:30:22.563Z,9.63
2022-09-29T08:32:52.520Z,7.85
2022-09-29T08:35:18.812Z,8.93
2022-09-29T08:37:45.340Z,7.85
2022-09-29T08:40:11.860Z,8.82
2022-09-29T08:42:57.366Z,9.35
2022-09-29T08:45:35.768Z,10.52
2022-09-29T08:48:20.109Z,12.30
2022-09-29T08:50:57.159Z,7.15
2022-09-29T08:53:29.077Z,9.95
2022-09-29T08:55:55.955Z,8.25
2022-09-29T08:58:22.429Z,7.38
2022-09-29T09:01:20.990Z,11.02
2022-09-29T09:03:50.126Z,8.23
2022-09-29T09:06:36.761Z,7.93
2022-09-29T09:09:10.615Z,12.43
2022-09-29T09:11:46.173Z,6.97
2022-09-29T09:14:36.079Z,9.93
2022-09-29T09:17:20.824Z,8.00
2022-09-29T09:20:06.004Z,7.53
2022-09-29T09:22:51.113Z,12.00
2022-09-29T09:25:23.729Z,8.07
2022-09-29T09:27:57.201Z,9.63
2022-09-29T09:30:24.775Z,8.30
2022-09-29T09:33:01.749Z,8.55
2022-09-29T09:35:52.860Z,7.55
2022-09-29T09:38:25.936Z,2.67
2022-09-29T09:40:53.985Z,11.20
2022-09-29T09:43:22.512Z,13.55
2022-09-29T09:45:51.495Z,3.22
2022-09-29T09:48:36.627Z,5.38
2022-09-29T09:51:14.236Z,3.25
2022-09-29T09:53:42.869Z,4.80
2022-09-29T09:56:09.244Z,6.97
2022-09-29T09:58:54.426Z,4.57
2022-09-29T10:01:21.180Z,6.65
2022-09-29T10:03:47.619Z,4.13
2022-09-29T10:06:14.007Z,4.75
2022-09-29T10:08:42.161Z,4.70
2022-09-29T10:11:28.072Z,4.78
2022-09-29T10:14:00.368Z,6.55
2022-09-29T10:16:41.569Z,5.35
2022-09-29T10:19:10.799Z,5.53
2022-09-29T10:21:44.143Z,12.95
2022-09-29T10:24:31.070Z,3.30
2022-09-29T10:26:59.594Z,4.05
2022-09-29T10:29:28.616Z,5.05
2022-09-29T10:32:13.037Z,6.00
2022-09-29T10:34:41.830Z,3.60
2022-09-29T10:37:23.663Z,3.03
2022-09-29T10:39:50.652Z,2.92
2022-09-29T10:42:21.203Z,2.47
2022-09-29T10:44:55.149Z,3.63
2022-09-29T10:47:22.596Z,2.85
2022-09-29T10:50:06.912Z,5.40
2022-09-29T10:52:33.595Z,6.50
2022-09-29T10:55:00.922Z,2.92
2022-09-29T10:57:28.748Z,5.80
2022-09-29T10:59:56.011Z,1.90
2022-09-29T11:02:25.068Z,1.92
2022-09-29T11:04:52.377Z,1.73
2022-09-29T11:07:18.729Z,3.65
2022-09-29T11:09:45.410Z,3.13
2022-09-29T11:12:41.063Z,2.25
2022-09-29T11:15:33.894Z,3.15
2022-09-29T11:18:00.276Z,1.95
2022-09-29T11:20:28.985Z,2.63
2022-09-29T11:22:55.335Z,2.33
2022-09-29T11:25:40.827Z,1.83
2022-09-29T11:28:09.901Z,2.78
2022-09-29T11:30:36.216Z,1.10
2022-09-29T11:33:16.288Z,3.35
2022-09-29T11:35:47.828Z,2.00
2022-09-29T11:38:21.734Z,2.00
2022-09-29T11:41:06.716Z,7.45
2022-09-29T11:43:39.249Z,3.35
2022-09-29T11:46:13.228Z,1.08
2022-09-29T11:48:47.053Z,1.95
2022-09-29T11:51:24.336Z,3.33
2022-09-29T11:53:51.263Z,0.77
2022-09-29T11:56:17.649Z,1.15
2022-09-29T11:59:04.119Z,2.03
2022-09-29T12:01:42.924Z,0.90
2022-09-29T12:04:18.123Z,2.65
2022-09-29T12:06:44.577Z,1.73
2022-09-29T12:09:10.897Z,0.85
2022-09-29T12:12:18.819Z,0.90
2022-09-29T12:15:03.375Z,1.45
2022-09-29T12:17:33.225Z,1.33
2022-09-29T12:20:06.097Z,1.25
2022-09-29T12:22:34.631Z,3.67
2022-09-29T12:25:03.277Z,1.20
2022-09-29T12:27:33.346Z,1.65
2022-09-29T12:30:02.904Z,0.80
2022-09-29T12:32:57.389Z,1.05
2022-09-29T12:35:26.902Z,2.53
2022-09-29T12:38:08.314Z,1.98
2022-09-29T12:40:37.768Z,1.88
2022-09-29T12:43:42.435Z,1.52
2022-09-29T12:46:28.951Z,1.00
2022-09-29T12:49:18.896Z,2.40
2022-09-29T12:51:51.751Z,1.75
2022-09-29T12:54:31.375Z,1.35
2022-09-29T12:57:17.937Z,2.60
2022-09-29T12:59:53.288Z,0.70
2022-09-29T13:02:22.362Z,1.67
2022-09-29T13:05:04.274Z,1.75
2022-09-29T13:07:35.368Z,2.33
2022-09-29T13:10:07.801Z,2.22
2022-09-29T13:13:01.136Z,0.93
2022-09-29T13:15:36.990Z,2.67
2022-09-29T13:18:11.859Z,0.60
2022-09-29T13:20:39.632Z,0.40
2022-09-29T13:23:11.761Z,2.53
2022-09-29T13:25:56.721Z,2.20
2022-09-29T13:28:35.137Z,2.58
2022-09-29T13:31:03.214Z,1.55
2022-09-29T13:33:29.651Z,4.93
2022-09-29T13:35:56.573Z,5.55
2022-09-29T13:38:24.277Z,4.35
2022-09-29T13:41:10.378Z,2.22
2022-09-29T13:43:56.924Z,1.90
2022-09-29T13:46:32.344Z,2.38
2022-09-29T13:49:04.776Z,0.88
2022-09-29T13:51:42.156Z,4.70
2022-09-29T13:54:28.748Z,1.10
2022-09-29T13:57:04.689Z,2.88
2022-09-29T13:59:31.389Z,1.17
2022-09-29T14:01:58.645Z,1.83
2022-09-29T14:04:34.366Z,1.58
2022-09-29T14:07:04.254Z,1.95
2022-09-29T14:09:33.477Z,3.60
2022-09-29T14:12:05.420Z,2.40
2022-09-29T14:14:33.874Z,2.33
2022-09-29T14:17:04.445Z,4.30
2022-09-29T14:19:48.671Z,2.20
2022-09-29T14:22:24.135Z,1.00
2022-09-29T14:24:51.453Z,1.90
2022-09-29T14:27:21.103Z,1.23
2022-09-29T14:30:06.187Z,4.53
2022-09-29T14:32:37.245Z,4.82
2022-09-29T14:35:05.802Z,4.82
2022-09-29T14:37:32.107Z,3.40
2022-09-29T14:40:17.269Z,1.55
2022-09-29T14:42:43.660Z,4.00
2022-09-29T14:45:38.955Z,2.75
2022-09-29T14:48:36.009Z,1.90
2022-09-29T14:51:35.705Z,1.88
2022-09-29T14:54:10.833Z,0.93
2022-09-29T14:56:51.905Z,4.00
2022-09-29T14:59:35.431Z,2.42
2022-09-29T15:02:22.615Z,2.53
2022-09-29T15:04:49.542Z,1.42
2022-09-29T15:07:21.017Z,1.55
2022-09-29T15:09:48.947Z,1.52
2022-09-29T15:12:16.701Z,2.55
2022-09-29T15:14:43.010Z,0.40
2022-09-29T15:17:15.152Z,1.85
2022-09-29T15:19:55.647Z,1.00
2022-09-29T15:22:34.640Z,1.83
2022-09-29T15:25:10.374Z,1.45
2022-09-29T15:27:38.535Z,1.20
2022-09-29T15:30:05.241Z,0.90
2022-09-29T15:32:31.927Z,1.38
2022-09-29T15:35:02.309Z,0.70
2022-09-29T15:37:45.450Z,0.47
2022-09-29T15:40:16.300Z,0.13
2022-09-29T15:42:42.626Z,0.30
2022-09-29T15:45:12.770Z,1.00
2022-09-29T15:47:40.493Z,0.30
2022-09-29T15:50:20.543Z,1.95
2022-09-29T15:52:47.090Z,1.50
2022-09-29T15:55:16.024Z,2.72
2022-09-29T15:57:44.087Z,4.93
2022-09-29T16:00:22.403Z,7.00
2022-09-29T16:02:48.815Z,6.53
2022-09-29T16:05:17.717Z,2.53
2022-09-29T16:07:58.299Z,2.90
2022-09-29T16:10:28.234Z,1.25
2022-09-29T16:12:59.972Z,2.42
2022-09-29T16:15:33.497Z,1.13
2022-09-29T16:18:05.985Z,6.43
2022-09-29T16:20:34.066Z,1.73
2022-09-29T16:23:18.562Z,1.48
2022-09-29T16:25:44.945Z,0.45
2022-09-29T16:28:29.868Z,2.65
2022-09-29T16:31:03.434Z,0.52
2022-09-29T16:33:29.878Z,1.17
2022-09-29T16:35:58.884Z,5.93
2022-09-29T16:38:35.550Z,0.52
2022-09-29T16:41:34.229Z,1.92
2022-09-29T16:44:19.596Z,1.20
2022-09-29T16:46:46.020Z,1.03
2022-09-29T16:49:16.594Z,1.17
2022-09-29T16:51:44.507Z,0.90
2022-09-29T16:54:23.164Z,1.42
2022-09-29T16:56:50.207Z,1.95
2022-09-29T16:59:17.526Z,2.85
2022-09-29T17:01:44.529Z,0.93
2022-09-29T17:04:11.585Z,2.97
2022-09-29T17:06:38.433Z,0.68
2022-09-29T17:09:05.218Z,0.50
2022-09-29T17:11:31.667Z,0.82
2022-09-29T17:13:57.972Z,1.10
2022-09-29T17:16:25.284Z,2.08
2022-09-29T17:18:52.522Z,1.65
2022-09-29T17:21:19.287Z,2.17
2022-09-29T17:23:45.764Z,0.52
2022-09-29T17:26:38.630Z,1.50
2022-09-29T17:29:05.248Z,2.28
2022-09-29T17:31:31.555Z,1.30
2022-09-29T17:33:57.964Z,0.70
2022-09-29T17:36:24.351Z,1.38
2022-09-29T17:38:52.012Z,1.52
2022-09-29T17:41:18.973Z,1.20
2022-09-29T17:43:46.672Z,1.40
2022-09-29T17:46:14.572Z,3.83
2022-09-29T17:48:40.973Z,1.45
2022-09-29T17:51:14.420Z,1.50
2022-09-29T17:53:41.594Z,1.15
2022-09-29T17:56:15.493Z,2.20
2022-09-29T17:58:41.843Z,2.65
2022-09-29T18:01:09.122Z,1.52
2022-09-29T18:03:39.685Z,3.03
2022-09-29T18:06:06.477Z,2.03
2022-09-29T18:08:32.773Z,2.85
2022-09-29T18:11:02.448Z,4.18
2022-09-29T18:13:31.260Z,1.77
2022-09-29T18:16:01.479Z,1.05
2022-09-29T18:18:28.040Z,1.65
2022-09-29T18:20:54.508Z,0.90
2022-09-29T18:23:22.997Z,3.05
2022-09-29T18:25:50.334Z,3.15
2022-09-29T18:28:17.662Z,5.03
2022-09-29T18:30:45.473Z,4.13
2022-09-29T18:33:14.377Z,4.00
2022-09-29T18:35:41.689Z,6.75
2022-09-29T18:38:08.331Z,5.43
2022-09-29T18:40:35.165Z,4.25
2022-09-29T18:43:01.942Z,3.95
2022-09-29T18:45:29.700Z,2.47
2022-09-29T18:47:59.915Z,1.77
2022-09-29T18:50:27.592Z,6.15
2022-09-29T18:52:54.509Z,6.28
2022-09-29T18:55:25.546Z,4.55
2022-09-29T18:57:52.843Z,2.70
2022-09-29T19:00:20.549Z,1.48
2022-09-29T19:02:47.514Z,1.23
2022-09-29T19:05:18.761Z,2.53
2022-09-29T19:07:45.784Z,2.60
2022-09-29T19:10:14.232Z,3.05
2022-09-29T19:12:45.085Z,1.70
2022-09-29T19:15:12.369Z,1.88
2022-09-29T19:17:38.799Z,2.92
2022-09-29T19:20:05.467Z,2.30
2022-09-29T19:22:38.391Z,3.90
2022-09-29T19:25:06.025Z,4.47
2022-09-29T19:27:32.944Z,4.18
2022-09-29T19:30:03.221Z,9.85
2022-09-29T19:32:30.091Z,4.70
2022-09-29T19:34:56.430Z,5.78
2022-09-29T19:37:24.073Z,3.50
2022-09-29T19:39:50.979Z,5.13
2022-09-29T19:42:17.613Z,4.30
2022-09-29T19:44:44.077Z,4.60
2022-09-29T19:47:12.037Z,5.68
2022-09-29T19:49:38.345Z,7.07
2022-09-29T19:52:04.922Z,6.75
2022-09-29T19:54:33.237Z,4.75
2022-09-29T19:57:01.251Z,5.80
2022-09-29T19:59:29.397Z,4.07
2022-09-29T20:01:55.962Z,4.88
2022-09-29T20:04:28.636Z,3.38
2022-09-29T20:06:55.844Z,5.90
2022-09-29T20:09:22.530Z,9.82
2022-09-29T20:11:49.935Z,5.28
2022-09-29T20:14:18.217Z,7.30
2022-09-29T20:16:45.384Z,8.30
2022-09-29T20:19:15.450Z,5.13
2022-09-29T20:21:51.723Z,4.43
2022-09-29T20:24:19.592Z,3.88
2022-09-29T20:26:47.154Z,3.88
2022-09-29T20:29:14.165Z,8.27
2022-09-29T20:31:40.702Z,7.85
2022-09-29T20:34:07.596Z,5.13
2022-09-29T20:36:34.804Z,6.40
2022-09-29T20:39:01.107Z,8.32
2022-09-29T20:41:29.392Z,5.40
2022-09-29T20:43:56.536Z,5.93
2022-09-29T20:46:27.417Z,6.88
2022-09-29T20:48:55.274Z,4.75
2022-09-29T20:51:22.404Z,2.75
2022-09-29T20:53:56.733Z,3.72
2022-09-29T20:56:24.751Z,6.53
2022-09-29T20:58:51.450Z,5.03
2022-09-29T21:01:22.631Z,2.45
2022-09-29T21:04:09.917Z,4.47
2022-09-29T21:06:37.555Z,4.90
2022-09-29T21:09:05.430Z,5.15
2022-09-29T21:11:38.018Z,5.85
2022-09-29T21:14:08.737Z,4.78
2022-09-29T21:16:41.705Z,5.18
2022-09-29T21:19:08.568Z,4.95
2022-09-29T21:21:35.079Z,6.03
2022-09-29T21:24:03.262Z,5.45
2022-09-29T21:26:30.271Z,6.22
2022-09-29T21:28:57.677Z,5.07
2022-09-29T21:31:25.500Z,3.72
2022-09-29T21:33:54.471Z,7.05
2022-09-29T21:36:21.316Z,6.25
2022-09-29T21:38:47.674Z,6.15
2022-09-29T21:41:21.286Z,4.65
2022-09-29T21:43:52.608Z,5.35
2022-09-29T21:46:19.944Z,5.07
2022-09-29T21:48:49.985Z,4.97
2022-09-29T21:51:17.247Z,4.97
2022-09-29T21:53:44.995Z,8.38
2022-09-29T21:56:16.187Z,5.10
2022-09-29T21:58:42.975Z,6.07
2022-09-29T22:01:11.579Z,5.70
2022-09-29T22:03:42.290Z,3.90
2022-09-29T22:06:16.158Z,6.85
2022-09-29T22:08:42.999Z,7.18
2022-09-29T22:11:10.013Z,7.20
2022-09-29T22:13:37.008Z,5.40
2022-09-29T22:16:07.730Z,7.03
2022-09-29T22:18:41.529Z,9.32
2022-09-29T22:21:09.553Z,8.18
2022-09-29T22:23:36.255Z,5.82
2022-09-29T22:26:03.119Z,3.67
2022-09-29T22:28:30.239Z,6.18
2022-09-29T22:31:04.367Z,4.25
2022-09-29T22:33:33.848Z,7.38
2022-09-29T22:36:00.606Z,5.88
2022-09-29T22:38:27.060Z,7.32
2022-09-29T22:40:54.651Z,6.68
2022-09-29T22:43:21.065Z,9.32
2022-09-29T22:45:48.567Z,6.40
2022-09-29T22:48:15.799Z,6.28
2022-09-29T22:50:48.811Z,7.15
2022-09-29T22:53:15.457Z,6.10
2022-09-29T22:55:42.300Z,5.03
2022-09-29T22:58:09.471Z,3.60
2022-09-29T23:00:36.415Z,4.72
2022-09-29T23:03:03.216Z,3.58
2022-09-29T23:05:29.529Z,3.33
2022-09-29T23:07:55.810Z,5.80
2022-09-29T23:10:22.291Z,4.00
2022-09-29T23:12:48.576Z,5.10
2022-09-29T23:15:15.032Z,6.03
2022-09-29T23:17:41.428Z,9.98
2022-09-29T23:20:08.016Z,5.50
2022-09-29T23:22:34.503Z,7.80
2022-09-29T23:25:00.795Z,5.78
2022-09-29T23:27:29.693Z,5.93
2022-09-29T23:29:56.058Z,5.50
2022-09-29T23:32:22.502Z,6.72
2022-09-29T23:34:48.789Z,3.65
2022-09-29T23:37:15.088Z,5.10
2022-09-29T23:39:41.397Z,6.20
2022-09-29T23:42:09.574Z,8.63
2022-09-29T23:44:40.506Z,8.35
2022-09-29T23:47:06.953Z,5.57
2022-09-29T23:49:33.400Z,5.35
2022-09-29T23:52:01.279Z,6.30
2022-09-29T23:54:28.288Z,7.35
2022-09-29T23:56:55.900Z,6.50
2022-09-29T23:59:22.739Z,6.50
